Time;durP1;ratioP1;P1;durP2;ratioP2;P2;SDS_P1;SDS_P2;PMS_P1;PMS_P2;Temp;Humidity;BMP_temperature;BMP_pressure;BME280_temperature;BME280_humidity;BME280_pressure;Samples;Min_cycle;Max_cycle;Signal;HPM_P1;HPM_P2
2022/10/08 00:00:49;;;;;;;5.45;1.50;;;;;;;;;;5094146;28;20035;-79
2022/10/08 00:03:16;;;;;;;3.30;1.10;;;;;;;;;;5112500;28;20126;-78
2022/10/08 00:05:42;;;;;;;4.93;1.20;;;;;;;;;;5078857;28;20039;-78
2022/10/08 00:08:08;;;;;;;6.28;1.30;;;;;;;;;;5110935;28;20051;-78
2022/10/08 00:10:35;;;;;;;4.47;1.10;;;;;;;;;;5111194;28;20044;-77
2022/10/08 00:13:01;;;;;;;5.82;1.30;;;;;;;;;;5105089;28;20036;-77
2022/10/08 00:15:28;;;;;;;3.83;1.27;;;;;;;;;;5123557;27;20031;-77
2022/10/08 00:17:54;;;;;;;4.10;1.20;;;;;;;;;;5115724;28;20042;-78
2022/10/08 00:20:20;;;;;;;3.97;1.20;;;;;;;;;;5111691;28;20472;-78
2022/10/08 00:22:47;;;;;;;5.13;1.38;;;;;;;;;;5094951;28;20082;-79
2022/10/08 00:25:13;;;;;;;7.40;1.60;;;;;;;;;;5116232;28;20044;-78
2022/10/08 00:27:39;;;;;;;5.97;1.48;;;;;;;;;;5112273;28;20042;-78
2022/10/08 00:30:06;;;;;;;6.35;1.35;;;;;;;;;;5111194;28;20407;-79
2022/10/08 00:32:32;;;;;;;5.45;1.63;;;;;;;;;;5111284;28;20046;-78
2022/10/08 00:34:58;;;;;;;5.68;1.70;;;;;;;;;;5111715;28;20088;-79
2022/10/08 00:37:24;;;;;;;5.60;1.83;;;;;;;;;;5111772;28;20499;-79
2022/10/08 00:39:50;;;;;;;4.38;1.60;;;;;;;;;;5110962;28;20065;-79
2022/10/08 00:42:17;;;;;;;7.03;1.83;;;;;;;;;;5094666;28;20074;-79
2022/10/08 00:44:50;;;;;;;4.88;1.70;;;;;;;;;;5112864;28;20047;-78
2022/10/08 00:47:28;;;;;;;8.02;1.95;;;;;;;;;;5112090;28;20091;-78
2022/10/08 00:49:57;;;;;;;7.80;1.90;;;;;;;;;;5110968;28;20116;-79
2022/10/08 00:52:24;;;;;;;6.13;2.00;;;;;;;;;;5111834;28;20122;-79
2022/10/08 00:54:51;;;;;;;7.38;1.52;;;;;;;;;;5115099;28;20163;-79
2022/10/08 00:57:17;;;;;;;9.27;1.90;;;;;;;;;;5100423;27;20034;-79
2022/10/08 00:59:43;;;;;;;4.32;1.80;;;;;;;;;;5116269;28;20044;-78
2022/10/08 01:02:11;;;;;;;7.20;2.10;;;;;;;;;;5096341;28;20043;-79
2022/10/08 01:04:38;;;;;;;11.48;3.15;;;;;;;;;;5115529;28;20066;-79
2022/10/08 01:07:06;;;;;;;8.35;2.47;;;;;;;;;;5126786;27;20077;-79
2022/10/08 01:09:32;;;;;;;10.48;2.58;;;;;;;;;;5114879;28;20067;-79
2022/10/08 01:11:58;;;;;;;6.80;2.58;;;;;;;;;;5114350;28;20040;-78
2022/10/08 01:14:40;;;;;;;10.52;2.67;;;;;;;;;;5114456;28;20100;-79
2022/10/08 01:17:16;;;;;;;9.57;2.85;;;;;;;;;;5099116;28;20043;-78
2022/10/08 01:19:58;;;;;;;8.82;2.60;;;;;;;;;;5116880;27;20071;-78
2022/10/08 01:22:42;;;;;;;10.85;2.72;;;;;;;;;;5116344;28;20044;-78
2022/10/08 01:28:02;;;;;;;8.95;2.40;;;;;;;;;;5119759;27;20451;-73
2022/10/08 01:30:31;;;;;;;11.00;3.25;;;;;;;;;;5100952;28;20031;-73
2022/10/08 01:33:11;;;;;;;9.60;2.53;;;;;;;;;;5114638;28;20032;-73
2022/10/08 01:35:37;;;;;;;12.50;2.97;;;;;;;;;;5114371;28;20043;-73
2022/10/08 01:38:05;;;;;;;7.28;2.60;;;;;;;;;;5103898;27;20035;-73
2022/10/08 01:40:34;;;;;;;6.05;2.28;;;;;;;;;;5112553;27;20118;-78
2022/10/08 01:43:03;;;;;;;9.00;2.08;;;;;;;;;;5115006;28;20510;-78
2022/10/08 01:45:35;;;;;;;11.85;2.75;;;;;;;;;;5114226;28;20071;-79
2022/10/08 01:48:08;;;;;;;11.43;2.67;;;;;;;;;;5114596;27;20051;-78
2022/10/08 01:50:37;;;;;;;7.55;2.08;;;;;;;;;;5127335;27;20040;-78
2022/10/08 01:53:15;;;;;;;10.57;2.05;;;;;;;;;;5113766;28;20492;-78
2022/10/08 01:55:43;;;;;;;6.93;2.00;;;;;;;;;;5110220;28;20039;-79
2022/10/08 01:58:13;;;;;;;8.30;1.90;;;;;;;;;;5110519;27;20150;-73
2022/10/08 02:00:41;;;;;;;9.43;2.22;;;;;;;;;;5113329;27;20088;-73
2022/10/08 02:03:10;;;;;;;10.52;2.17;;;;;;;;;;5106897;28;20115;-72
2022/10/08 02:05:38;;;;;;;7.82;1.80;;;;;;;;;;5091239;28;20047;-73
2022/10/08 02:08:04;;;;;;;6.85;1.95;;;;;;;;;;5096573;27;20645;-73
2022/10/08 02:10:31;;;;;;;8.63;2.53;;;;;;;;;;5102615;27;20046;-73
2022/10/08 02:12:57;;;;;;;6.75;2.17;;;;;;;;;;5093008;28;20047;-73
2022/10/08 02:15:37;;;;;;;9.02;2.20;;;;;;;;;;5101783;28;20039;-73
2022/10/08 02:18:12;;;;;;;10.90;2.40;;;;;;;;;;5114767;28;20047;-73
2022/10/08 02:20:40;;;;;;;11.90;2.40;;;;;;;;;;5120933;27;20043;-73
2022/10/08 02:23:09;;;;;;;8.02;2.30;;;;;;;;;;5113246;28;20385;-73
2022/10/08 02:25:54;;;;;;;10.73;2.10;;;;;;;;;;5114369;27;20031;-73
2022/10/08 02:28:27;;;;;;;7.25;2.70;;;;;;;;;;5110200;28;20119;-73
2022/10/08 02:30:55;;;;;;;9.18;2.70;;;;;;;;;;5114585;27;20050;-73
2022/10/08 02:33:25;;;;;;;9.43;2.97;;;;;;;;;;5112660;28;20432;-73
2022/10/08 02:35:54;;;;;;;9.05;2.78;;;;;;;;;;5111582;27;20039;-73
2022/10/08 02:38:23;;;;;;;9.20;2.90;;;;;;;;;;5105106;27;20051;-73
2022/10/08 02:40:50;;;;;;;9.18;3.20;;;;;;;;;;5112995;28;20088;-78
2022/10/08 02:43:20;;;;;;;17.90;3.95;;;;;;;;;;5077055;28;20501;-79
2022/10/08 02:45:53;;;;;;;10.70;3.13;;;;;;;;;;5107062;28;20500;-78
2022/10/08 02:48:22;;;;;;;11.27;3.55;;;;;;;;;;5109949;27;20043;-78
2022/10/08 02:50:50;;;;;;;11.38;3.45;;;;;;;;;;5113659;28;20043;-78
2022/10/08 02:53:17;;;;;;;8.98;3.40;;;;;;;;;;5117690;27;20043;-79
2022/10/08 02:55:46;;;;;;;8.73;3.50;;;;;;;;;;5096693;28;20043;-79
2022/10/08 02:58:12;;;;;;;9.48;3.20;;;;;;;;;;5096631;27;20063;-78
2022/10/08 03:00:42;;;;;;;12.90;3.85;;;;;;;;;;5089438;28;20043;-78
2022/10/08 03:03:16;;;;;;;11.52;3.80;;;;;;;;;;5106332;27;20127;-78
2022/10/08 03:05:42;;;;;;;14.30;3.75;;;;;;;;;;5112559;28;20040;-79
2022/10/08 03:08:10;;;;;;;11.50;3.85;;;;;;;;;;5116823;27;20043;-79
2022/10/08 03:10:38;;;;;;;11.45;4.20;;;;;;;;;;5120447;27;20081;-79
2022/10/08 03:13:04;;;;;;;12.85;4.18;;;;;;;;;;5097210;27;20044;-80
2022/10/08 03:15:31;;;;;;;12.40;4.03;;;;;;;;;;5089199;28;20062;-79
2022/10/08 03:17:58;;;;;;;13.52;3.97;;;;;;;;;;5109039;28;20438;-79
2022/10/08 03:20:25;;;;;;;10.52;3.90;;;;;;;;;;5095937;28;20032;-79
2022/10/08 03:22:53;;;;;;;12.45;4.50;;;;;;;;;;5112149;28;20071;-79
2022/10/08 03:25:19;;;;;;;11.52;3.97;;;;;;;;;;5112965;27;20088;-79
2022/10/08 03:27:45;;;;;;;10.20;4.10;;;;;;;;;;5111950;28;20047;-79
2022/10/08 03:30:12;;;;;;;11.07;4.60;;;;;;;;;;5095599;28;20035;-79
2022/10/08 03:32:38;;;;;;;11.38;4.22;;;;;;;;;;5091701;28;20036;-79
2022/10/08 03:35:04;;;;;;;18.27;5.30;;;;;;;;;;5112917;27;20039;-78
2022/10/08 03:37:30;;;;;;;11.98;4.53;;;;;;;;;;5111692;28;20039;-79
2022/10/08 03:39:56;;;;;;;17.52;4.60;;;;;;;;;;5113113;27;20043;-79
2022/10/08 03:42:22;;;;;;;16.85;4.10;;;;;;;;;;5111586;28;20036;-73
2022/10/08 03:44:48;;;;;;;15.70;3.90;;;;;;;;;;5112581;27;20047;-74
2022/10/08 03:47:14;;;;;;;18.98;4.00;;;;;;;;;;5101069;27;20061;-73
2022/10/08 03:49:41;;;;;;;18.52;4.75;;;;;;;;;;5116489;27;20549;-73
2022/10/08 03:52:07;;;;;;;15.02;4.18;;;;;;;;;;5138296;27;20070;-72
2022/10/08 03:54:36;;;;;;;17.02;3.92;;;;;;;;;;5103048;27;20038;-72
2022/10/08 03:57:02;;;;;;;12.95;3.72;;;;;;;;;;5101471;27;20042;-73
2022/10/08 03:59:29;;;;;;;14.05;3.53;;;;;;;;;;5115095;27;20492;-73
2022/10/08 04:01:55;;;;;;;14.60;3.92;;;;;;;;;;5112878;27;20043;-73
2022/10/08 04:04:21;;;;;;;14.02;3.58;;;;;;;;;;5107933;28;20077;-73
2022/10/08 04:06:47;;;;;;;12.63;3.50;;;;;;;;;;5098298;27;20043;-72
2022/10/08 04:09:13;;;;;;;14.93;3.55;;;;;;;;;;5094316;28;20039;-73
2022/10/08 04:11:39;;;;;;;11.80;3.60;;;;;;;;;;5097715;28;20122;-73
2022/10/08 04:14:05;;;;;;;13.88;3.15;;;;;;;;;;5094570;28;20043;-79
2022/10/08 04:16:31;;;;;;;14.57;3.30;;;;;;;;;;5098131;28;20063;-78
2022/10/08 04:18:57;;;;;;;12.50;2.67;;;;;;;;;;5094859;28;20050;-78
2022/10/08 04:21:23;;;;;;;14.85;3.03;;;;;;;;;;5098051;27;20114;-79
2022/10/08 04:23:50;;;;;;;14.93;3.17;;;;;;;;;;5102971;28;20118;-79
2022/10/08 04:26:16;;;;;;;15.68;2.63;;;;;;;;;;5084316;27;20505;-79
2022/10/08 04:28:43;;;;;;;19.58;3.13;;;;;;;;;;5101352;28;20078;-79
2022/10/08 04:31:11;;;;;;;11.93;2.38;;;;;;;;;;5098592;28;20038;-79
2022/10/08 04:33:37;;;;;;;9.07;2.38;;;;;;;;;;5115716;27;20027;-74
2022/10/08 04:36:10;;;;;;;12.57;2.17;;;;;;;;;;5098418;28;20042;-74
2022/10/08 04:38:36;;;;;;;19.30;2.55;;;;;;;;;;5093681;28;20067;-74
2022/10/08 04:41:12;;;;;;;15.10;2.53;;;;;;;;;;5082192;28;20510;-74
2022/10/08 04:43:39;;;;;;;12.70;1.98;;;;;;;;;;5108195;27;20035;-74
2022/10/08 04:46:06;;;;;;;11.93;2.30;;;;;;;;;;5118649;27;20043;-73
2022/10/08 04:48:32;;;;;;;18.30;3.35;;;;;;;;;;5122393;27;20051;-73
2022/10/08 04:51:00;;;;;;;12.38;2.08;;;;;;;;;;5115289;27;20035;-73
2022/10/08 04:53:26;;;;;;;12.27;1.88;;;;;;;;;;5116887;27;20027;-74
2022/10/08 04:55:53;;;;;;;10.30;1.90;;;;;;;;;;5109382;28;20036;-74
2022/10/08 04:58:20;;;;;;;12.73;2.38;;;;;;;;;;5107736;27;20051;-74
2022/10/08 05:00:46;;;;;;;13.10;2.65;;;;;;;;;;5114510;28;20043;-74
2022/10/08 05:03:12;;;;;;;14.02;2.22;;;;;;;;;;5115417;28;20067;-74
2022/10/08 05:05:39;;;;;;;8.55;1.83;;;;;;;;;;5116569;27;20050;-74
2022/10/08 05:08:05;;;;;;;10.95;2.40;;;;;;;;;;5114711;28;20457;-74
2022/10/08 05:10:31;;;;;;;9.50;1.80;;;;;;;;;;5116396;27;20044;-75
2022/10/08 05:12:58;;;;;;;10.85;1.88;;;;;;;;;;5097407;28;20044;-74
2022/10/08 05:15:24;;;;;;;11.45;1.90;;;;;;;;;;5075620;28;20102;-73
2022/10/08 05:17:51;;;;;;;11.20;1.95;;;;;;;;;;5112264;28;20071;-74
2022/10/08 05:20:17;;;;;;;15.73;2.20;;;;;;;;;;5089562;27;20373;-74
2022/10/08 05:22:44;;;;;;;14.48;2.22;;;;;;;;;;5105949;28;20039;-73
2022/10/08 05:25:10;;;;;;;13.65;1.88;;;;;;;;;;5119115;27;20035;-74
2022/10/08 05:27:39;;;;;;;11.52;2.10;;;;;;;;;;5068879;28;20146;-73
2022/10/08 05:30:06;;;;;;;8.23;1.90;;;;;;;;;;5112165;28;20044;-74
2022/10/08 05:32:33;;;;;;;10.57;1.85;;;;;;;;;;5080521;28;20115;-73
2022/10/08 05:34:59;;;;;;;11.65;1.75;;;;;;;;;;5096725;27;20043;-74
2022/10/08 05:37:25;;;;;;;11.98;1.95;;;;;;;;;;5105650;28;20093;-73
2022/10/08 05:39:51;;;;;;;9.65;1.70;;;;;;;;;;5113976;27;20492;-73
2022/10/08 05:42:17;;;;;;;11.93;2.10;;;;;;;;;;5116449;27;20396;-78
2022/10/08 05:44:43;;;;;;;9.23;2.10;;;;;;;;;;5093396;28;20505;-79
2022/10/08 05:47:09;;;;;;;11.38;2.53;;;;;;;;;;5121212;27;20039;-78
2022/10/08 05:49:36;;;;;;;9.82;2.05;;;;;;;;;;5100155;27;20048;-78
2022/10/08 05:52:02;;;;;;;15.43;2.45;;;;;;;;;;5095132;28;20070;-78
2022/10/08 05:54:28;;;;;;;11.38;2.22;;;;;;;;;;5080428;28;20055;-79
2022/10/08 05:56:54;;;;;;;12.30;2.55;;;;;;;;;;5131172;27;20070;-79
2022/10/08 05:59:21;;;;;;;14.30;2.90;;;;;;;;;;5096486;28;20101;-81
2022/10/08 06:01:49;;;;;;;13.15;2.70;;;;;;;;;;5116990;27;20066;-79
2022/10/08 06:04:15;;;;;;;13.35;3.05;;;;;;;;;;5117816;27;20106;-79
2022/10/08 06:06:42;;;;;;;22.27;3.05;;;;;;;;;;5118977;27;20039;-79
2022/10/08 06:09:10;;;;;;;11.88;3.30;;;;;;;;;;5127409;27;20047;-79
2022/10/08 06:11:36;;;;;;;10.88;3.22;;;;;;;;;;5143370;27;20467;-75
2022/10/08 06:14:03;;;;;;;12.80;2.85;;;;;;;;;;5135967;27;20035;-77
2022/10/08 06:16:29;;;;;;;9.93;2.50;;;;;;;;;;5144911;27;20560;-76
2022/10/08 06:18:56;;;;;;;17.27;3.13;;;;;;;;;;5109096;27;20484;-76
2022/10/08 06:21:23;;;;;;;14.25;3.22;;;;;;;;;;5102000;28;20101;-75
2022/10/08 06:23:51;;;;;;;11.90;2.25;;;;;;;;;;5096395;27;20043;-76
2022/10/08 06:26:17;;;;;;;13.35;2.78;;;;;;;;;;5105948;28;20503;-76
2022/10/08 06:28:44;;;;;;;10.20;2.35;;;;;;;;;;5122421;27;20039;-76
2022/10/08 06:31:10;;;;;;;16.83;2.25;;;;;;;;;;5096307;28;20445;-76
2022/10/08 06:33:36;;;;;;;9.50;1.90;;;;;;;;;;5095462;28;20051;-76
2022/10/08 06:36:06;;;;;;;9.10;2.03;;;;;;;;;;5102488;27;20039;-76
2022/10/08 06:38:33;;;;;;;9.63;1.95;;;;;;;;;;5101971;28;20040;-77
2022/10/08 06:40:59;;;;;;;9.57;1.92;;;;;;;;;;5101199;28;20392;-76
2022/10/08 06:43:26;;;;;;;9.20;2.13;;;;;;;;;;5096482;27;20048;-76
2022/10/08 06:45:52;;;;;;;10.02;2.63;;;;;;;;;;5116025;27;20047;-76
2022/10/08 06:48:19;;;;;;;10.98;2.85;;;;;;;;;;5099049;27;20047;-76
2022/10/08 06:50:45;;;;;;;13.52;2.60;;;;;;;;;;5097954;27;20041;-76
2022/10/08 06:53:11;;;;;;;9.57;2.30;;;;;;;;;;5116264;27;20039;-76
2022/10/08 06:55:37;;;;;;;9.27;2.83;;;;;;;;;;5116127;27;20031;-76
2022/10/08 06:58:04;;;;;;;11.05;2.20;;;;;;;;;;5090330;27;20039;-75
2022/10/08 07:00:30;;;;;;;9.40;2.20;;;;;;;;;;5103101;27;20035;-76
2022/10/08 07:02:57;;;;;;;12.07;1.80;;;;;;;;;;5094992;28;20126;-76
2022/10/08 07:05:23;;;;;;;10.00;1.90;;;;;;;;;;5103346;28;20040;-76
2022/10/08 07:07:49;;;;;;;9.85;1.50;;;;;;;;;;5095167;28;20038;-76
2022/10/08 07:10:16;;;;;;;9.02;1.58;;;;;;;;;;5104967;27;20104;-76
2022/10/08 07:12:42;;;;;;;10.65;2.05;;;;;;;;;;5113965;27;20046;-77
2022/10/08 07:15:08;;;;;;;7.07;1.27;;;;;;;;;;5080417;28;20044;-77
2022/10/08 07:17:34;;;;;;;11.98;1.70;;;;;;;;;;5121408;27;20459;-77
2022/10/08 07:20:00;;;;;;;9.32;1.50;;;;;;;;;;5081428;28;20047;-76
2022/10/08 07:22:26;;;;;;;7.90;1.40;;;;;;;;;;5129803;27;20046;-77
2022/10/08 07:24:52;;;;;;;6.20;1.50;;;;;;;;;;5133084;27;20046;-78
2022/10/08 07:27:19;;;;;;;9.52;1.27;;;;;;;;;;5134333;27;20031;-77
2022/10/08 07:29:45;;;;;;;9.45;1.30;;;;;;;;;;5115047;27;20614;-77
2022/10/08 07:32:11;;;;;;;8.32;1.20;;;;;;;;;;5116756;27;20117;-77
2022/10/08 07:34:37;;;;;;;7.15;1.45;;;;;;;;;;5141400;27;20046;-77
2022/10/08 07:37:03;;;;;;;7.20;1.38;;;;;;;;;;5095955;28;20074;-77
2022/10/08 07:39:30;;;;;;;6.32;1.40;;;;;;;;;;5124249;27;20035;-77
2022/10/08 07:41:56;;;;;;;9.13;1.40;;;;;;;;;;5115213;27;20047;-77
2022/10/08 07:44:22;;;;;;;5.90;1.63;;;;;;;;;;5108609;27;20074;-78
2022/10/08 07:46:49;;;;;;;8.65;1.20;;;;;;;;;;5083732;27;20044;-78
2022/10/08 07:49:16;;;;;;;6.57;1.10;;;;;;;;;;5121296;27;20087;-77
2022/10/08 07:51:42;;;;;;;8.25;1.95;;;;;;;;;;5122157;27;20337;-77
2022/10/08 07:54:08;;;;;;;9.82;1.40;;;;;;;;;;5114740;27;20494;-77
2022/10/08 07:56:35;;;;;;;8.10;1.88;;;;;;;;;;5133812;27;20445;-77
2022/10/08 07:59:02;;;;;;;7.68;1.60;;;;;;;;;;5115030;27;20043;-77
2022/10/08 08:01:28;;;;;;;6.22;0.98;;;;;;;;;;5095962;28;20400;-77
2022/10/08 08:04:00;;;;;;;8.00;1.10;;;;;;;;;;5113502;27;20070;-77
2022/10/08 08:06:27;;;;;;;4.72;0.93;;;;;;;;;;5115037;27;20050;-77
2022/10/08 08:08:53;;;;;;;11.73;1.85;;;;;;;;;;5115580;27;20058;-77
2022/10/08 08:11:21;;;;;;;12.18;1.42;;;;;;;;;;5120091;27;20034;-77
2022/10/08 08:13:48;;;;;;;5.40;1.02;;;;;;;;;;5097910;27;20043;-78
2022/10/08 08:16:15;;;;;;;6.28;1.00;;;;;;;;;;5109873;28;20032;-78
2022/10/08 08:18:42;;;;;;;5.72;1.17;;;;;;;;;;5106297;28;20047;-78
2022/10/08 08:21:13;;;;;;;5.70;0.90;;;;;;;;;;5115949;27;20837;-78
2022/10/08 08:23:40;;;;;;;10.18;1.17;;;;;;;;;;5114864;28;20045;-79
2022/10/08 08:26:16;;;;;;;5.88;1.00;;;;;;;;;;5114820;28;20526;-73
2022/10/08 08:28:43;;;;;;;10.27;1.20;;;;;;;;;;5114561;28;20039;-73
2022/10/08 08:31:14;;;;;;;4.45;1.02;;;;;;;;;;5115593;27;20113;-73
2022/10/08 08:33:40;;;;;;;6.45;1.10;;;;;;;;;;5116552;28;20039;-72
2022/10/08 08:36:07;;;;;;;7.47;1.40;;;;;;;;;;5097173;28;20444;-73
2022/10/08 08:38:36;;;;;;;5.82;1.30;;;;;;;;;;5114695;28;20046;-74
2022/10/08 08:41:08;;;;;;;9.82;1.27;;;;;;;;;;5114219;28;20074;-74
2022/10/08 08:43:34;;;;;;;3.40;0.75;;;;;;;;;;5113266;28;20041;-74
2022/10/08 08:46:01;;;;;;;7.25;1.17;;;;;;;;;;5111013;27;20114;-74
2022/10/08 08:48:31;;;;;;;6.63;1.00;;;;;;;;;;5120201;28;20507;-74
2022/10/08 08:50:58;;;;;;;5.78;1.17;;;;;;;;;;5097016;28;20077;-74
2022/10/08 08:53:25;;;;;;;7.07;1.52;;;;;;;;;;5114859;28;20423;-74
2022/10/08 08:55:55;;;;;;;6.32;1.10;;;;;;;;;;5115345;28;20042;-74
2022/10/08 08:58:57;;;;;;;4.78;1.10;;;;;;;;;;5115621;28;20031;-74
2022/10/08 09:01:36;;;;;;;9.32;1.30;;;;;;;;;;5049964;28;20057;-79
2022/10/08 09:04:06;;;;;;;6.72;1.15;;;;;;;;;;5105104;28;20055;-79
2022/10/08 09:06:33;;;;;;;3.65;0.93;;;;;;;;;;5115667;27;20042;-79
2022/10/08 09:09:02;;;;;;;5.88;0.88;;;;;;;;;;5114143;28;20477;-80
2022/10/08 09:11:29;;;;;;;7.10;1.05;;;;;;;;;;5090490;28;20039;-80
2022/10/08 09:13:56;;;;;;;7.65;1.35;;;;;;;;;;5108797;27;20035;-79
2022/10/08 09:16:22;;;;;;;8.35;1.20;;;;;;;;;;5118199;27;20035;-79
2022/10/08 09:18:50;;;;;;;6.85;1.00;;;;;;;;;;5118684;27;20038;-78
2022/10/08 09:21:16;;;;;;;6.25;0.95;;;;;;;;;;5135196;27;20043;-79
2022/10/08 09:23:42;;;;;;;6.05;1.10;;;;;;;;;;5102336;27;20031;-79
2022/10/08 09:26:12;;;;;;;6.32;1.13;;;;;;;;;;5117833;27;20399;-79
2022/10/08 09:28:40;;;;;;;7.35;1.23;;;;;;;;;;5118104;27;20047;-77
2022/10/08 09:31:12;;;;;;;5.32;1.08;;;;;;;;;;5118909;27;20046;-79
2022/10/08 09:33:39;;;;;;;7.60;1.20;;;;;;;;;;5117914;27;20034;-78
2022/10/08 09:36:05;;;;;;;5.57;1.50;;;;;;;;;;5118634;27;20138;-81
2022/10/08 09:38:38;;;;;;;5.25;0.82;;;;;;;;;;5088208;27;20043;-78
2022/10/08 09:41:18;;;;;;;6.15;1.00;;;;;;;;;;5117851;27;20043;-78
2022/10/08 09:43:44;;;;;;;7.63;1.27;;;;;;;;;;5133191;27;20036;-78
2022/10/08 09:46:30;;;;;;;4.18;0.90;;;;;;;;;;5117433;27;20043;-79
2022/10/08 09:48:56;;;;;;;;;;;;;;;;;;5136281;27;20047;-78
2022/10/08 09:51:23;;;;;;;6.47;1.30;;;;;;;;;;5100294;27;19916;-79
2022/10/08 09:53:58;;;;;;;5.88;1.30;;;;;;;;;;5136201;27;20031;-79
2022/10/08 09:56:28;;;;;;;5.88;1.13;;;;;;;;;;5123029;27;20039;-81
2022/10/08 09:58:59;;;;;;;5.57;1.10;;;;;;;;;;5117172;27;20114;-79
2022/10/08 10:01:25;;;;;;;7.40;1.00;;;;;;;;;;5101520;27;20054;-78
2022/10/08 10:03:55;;;;;;;5.20;0.93;;;;;;;;;;5099979;27;20039;-79
2022/10/08 10:06:42;;;;;;;4.18;0.80;;;;;;;;;;5116963;27;20122;-78
2022/10/08 10:09:11;;;;;;;4.30;1.00;;;;;;;;;;5117965;27;20035;-78
2022/10/08 10:11:40;;;;;;;5.72;1.17;;;;;;;;;;5117286;27;20096;-78
2022/10/08 10:14:25;;;;;;;6.80;1.05;;;;;;;;;;5117680;27;20047;-78
2022/10/08 10:17:00;;;;;;;9.93;1.25;;;;;;;;;;5117197;27;20042;-78
2022/10/08 10:19:29;;;;;;;7.25;1.05;;;;;;;;;;5117018;27;20066;-78
2022/10/08 10:22:02;;;;;;;7.45;1.10;;;;;;;;;;5147166;27;20027;-79
2022/10/08 10:24:28;;;;;;;6.03;1.10;;;;;;;;;;5117362;27;20087;-80
2022/10/08 10:26:56;;;;;;;3.95;0.98;;;;;;;;;;5117818;27;20050;-80
2022/10/08 10:29:24;;;;;;;6.22;1.05;;;;;;;;;;5116574;27;20043;-80
2022/10/08 10:31:54;;;;;;;6.65;0.90;;;;;;;;;;5117930;27;20054;-82
2022/10/08 10:34:20;;;;;;;4.53;1.02;;;;;;;;;;5111045;27;20039;-80
2022/10/08 10:36:51;;;;;;;7.10;1.77;;;;;;;;;;5100094;27;20035;-79
2022/10/08 10:39:31;;;;;;;6.38;1.00;;;;;;;;;;5124949;27;20039;-79
2022/10/08 10:42:13;;;;;;;5.32;1.10;;;;;;;;;;5117174;27;20047;-80
2022/10/08 10:45:03;;;;;;;4.60;1.02;;;;;;;;;;5120149;27;20051;-80
2022/10/08 10:47:30;;;;;;;4.57;0.95;;;;;;;;;;5102747;27;20403;-81
2022/10/08 10:49:57;;;;;;;6.72;1.15;;;;;;;;;;5118913;27;20216;-74
2022/10/08 10:52:32;;;;;;;6.03;1.08;;;;;;;;;;5116178;27;20031;-73
2022/10/08 10:54:58;;;;;;;6.40;1.05;;;;;;;;;;5117690;27;20536;-74
2022/10/08 10:57:30;;;;;;;5.72;0.82;;;;;;;;;;5116811;27;20378;-74
2022/10/08 11:00:02;;;;;;;4.65;1.05;;;;;;;;;;5137792;27;20487;-74
2022/10/08 11:02:40;;;;;;;5.28;0.93;;;;;;;;;;5118740;27;20071;-74
2022/10/08 11:05:16;;;;;;;5.55;1.05;;;;;;;;;;5100818;27;20086;-72
2022/10/08 11:07:42;;;;;;;5.13;1.25;;;;;;;;;;5118827;27;20035;-73
2022/10/08 11:10:09;;;;;;;5.55;1.05;;;;;;;;;;5135420;27;20042;-74
2022/10/08 11:12:43;;;;;;;4.80;1.00;;;;;;;;;;5122768;27;20030;-74
2022/10/08 11:15:10;;;;;;;6.90;1.10;;;;;;;;;;5114698;27;20031;-74
2022/10/08 11:17:39;;;;;;;7.13;1.00;;;;;;;;;;5135675;27;20495;-74
2022/10/08 11:20:14;;;;;;;5.45;1.30;;;;;;;;;;5106519;27;20043;-74
2022/10/08 11:23:12;;;;;;;5.78;1.20;;;;;;;;;;5116291;27;20031;-74
2022/10/08 11:26:11;;;;;;;5.82;1.20;;;;;;;;;;5061190;28;20135;-74
2022/10/08 11:28:56;;;;;;;4.55;0.98;;;;;;;;;;5073286;27;20516;-73
2022/10/08 11:31:33;;;;;;;4.95;1.10;;;;;;;;;;5099097;27;20055;-73
2022/10/08 11:33:59;;;;;;;5.55;1.63;;;;;;;;;;5134547;27;20042;-73
2022/10/08 11:36:37;;;;;;;7.68;1.20;;;;;;;;;;5105991;27;20035;-74
2022/10/08 11:39:09;;;;;;;7.75;1.30;;;;;;;;;;5115417;27;20057;-73
2022/10/08 11:41:39;;;;;;;6.82;1.20;;;;;;;;;;5086917;27;20038;-73
2022/10/08 11:44:08;;;;;;;6.30;1.20;;;;;;;;;;5112675;27;20096;-74
2022/10/08 11:46:36;;;;;;;4.45;1.00;;;;;;;;;;5105004;28;20093;-73
2022/10/08 11:49:24;;;;;;;7.00;1.35;;;;;;;;;;5115153;27;20527;-73
2022/10/08 11:51:53;;;;;;;5.43;1.45;;;;;;;;;;5110702;27;20463;-78
2022/10/08 11:54:27;;;;;;;6.35;1.10;;;;;;;;;;5127044;27;20087;-78
2022/10/08 11:57:17;;;;;;;6.47;1.35;;;;;;;;;;5119618;27;20050;-80
2022/10/08 12:00:11;;;;;;;7.28;1.35;;;;;;;;;;5096422;27;20047;-80
2022/10/08 12:02:38;;;;;;;8.63;1.38;;;;;;;;;;5107607;27;20051;-81
2022/10/08 12:05:16;;;;;;;5.88;1.20;;;;;;;;;;5123783;27;20122;-78
2022/10/08 12:07:51;;;;;;;6.80;1.00;;;;;;;;;;5101870;28;20047;-78
2022/10/08 12:10:20;;;;;;;6.95;1.10;;;;;;;;;;5119730;27;20047;-79
2022/10/08 12:12:49;;;;;;;7.07;1.50;;;;;;;;;;5113713;27;20035;-79
2022/10/08 12:15:28;;;;;;;4.70;1.30;;;;;;;;;;5116058;28;20085;-79
2022/10/08 12:17:58;;;;;;;4.97;1.00;;;;;;;;;;5087942;28;20035;-81
2022/10/08 12:20:24;;;;;;;5.75;1.17;;;;;;;;;;5081054;28;20128;-79
2022/10/08 12:23:01;;;;;;;4.88;1.15;;;;;;;;;;5094774;28;20039;-79
2022/10/08 12:25:30;;;;;;;4.63;1.00;;;;;;;;;;5102318;27;20039;-79
2022/10/08 12:28:16;;;;;;;7.05;1.30;;;;;;;;;;5096820;27;20043;-78
2022/10/08 12:31:01;;;;;;;9.15;1.48;;;;;;;;;;5052930;28;20059;-79
2022/10/08 12:33:28;;;;;;;8.73;1.30;;;;;;;;;;5094174;28;20039;-78
2022/10/08 12:35:57;;;;;;;4.00;0.95;;;;;;;;;;5114577;27;20039;-79
2022/10/08 12:38:28;;;;;;;6.25;1.15;;;;;;;;;;5102978;27;20235;-80
2022/10/08 12:41:13;;;;;;;6.15;1.10;;;;;;;;;;5093959;28;20085;-78
2022/10/08 12:43:59;;;;;;;4.28;0.88;;;;;;;;;;5094033;28;20348;-79
2022/10/08 12:46:25;;;;;;;4.13;0.90;;;;;;;;;;5107520;27;20118;-78
2022/10/08 12:49:03;;;;;;;3.70;0.90;;;;;;;;;;5117064;27;20457;-78
2022/10/08 12:51:46;;;;;;;7.55;1.10;;;;;;;;;;5118351;27;20047;-78
2022/10/08 12:54:20;;;;;;;7.80;1.20;;;;;;;;;;5098284;28;20463;-80
2022/10/08 12:56:46;;;;;;;8.87;1.17;;;;;;;;;;5111234;27;20172;-78
2022/10/08 12:59:13;;;;;;;7.25;1.00;;;;;;;;;;5119741;27;20380;-79
2022/10/08 13:01:43;;;;;;;6.35;1.10;;;;;;;;;;5101971;27;20489;-78
2022/10/08 13:04:17;;;;;;;8.00;1.20;;;;;;;;;;5109339;27;20127;-79
2022/10/08 13:06:44;;;;;;;7.38;1.05;;;;;;;;;;5097444;28;20059;-75
2022/10/08 13:09:26;;;;;;;7.28;1.13;;;;;;;;;;5109559;27;20039;-77
2022/10/08 13:11:53;;;;;;;9.80;1.42;;;;;;;;;;5118387;27;20534;-81
2022/10/08 13:14:25;;;;;;;7.47;1.15;;;;;;;;;;5119344;27;20039;-78
2022/10/08 13:16:52;;;;;;;5.20;1.00;;;;;;;;;;5113939;27;20039;-78
2022/10/08 13:19:19;;;;;;;9.38;1.17;;;;;;;;;;5115693;27;20126;-77
2022/10/08 13:21:55;;;;;;;8.77;1.73;;;;;;;;;;5113998;27;20511;-77
2022/10/08 13:24:23;;;;;;;7.47;1.58;;;;;;;;;;5113391;27;20483;-78
2022/10/08 13:26:51;;;;;;;4.75;0.98;;;;;;;;;;5087454;28;20036;-77
2022/10/08 13:29:20;;;;;;;9.98;1.30;;;;;;;;;;5097523;28;20040;-77
2022/10/08 13:31:54;;;;;;;7.80;1.00;;;;;;;;;;5096890;28;20082;-78
2022/10/08 13:34:20;;;;;;;6.75;1.15;;;;;;;;;;5105943;27;20026;-77
2022/10/08 13:36:48;;;;;;;10.90;1.48;;;;;;;;;;5122465;27;20506;-77
2022/10/08 13:39:28;;;;;;;8.73;1.60;;;;;;;;;;5097476;28;20043;-77
2022/10/08 13:41:56;;;;;;;10.55;1.30;;;;;;;;;;5115715;28;20062;-77
2022/10/08 13:44:22;;;;;;;7.60;1.30;;;;;;;;;;5116920;27;20535;-78
2022/10/08 13:46:49;;;;;;;7.18;1.20;;;;;;;;;;5118126;27;20096;-76
2022/10/08 13:49:20;;;;;;;7.03;1.20;;;;;;;;;;5118117;27;20499;-77
2022/10/08 13:51:46;;;;;;;8.00;1.13;;;;;;;;;;5117618;27;20074;-77
2022/10/08 13:54:13;;;;;;;6.78;1.20;;;;;;;;;;5117512;27;20043;-77
2022/10/08 13:56:39;;;;;;;7.22;1.13;;;;;;;;;;5118368;27;20039;-80
2022/10/08 13:59:05;;;;;;;6.97;1.30;;;;;;;;;;5117347;27;20046;-77
2022/10/08 14:01:31;;;;;;;8.57;1.20;;;;;;;;;;5117097;27;20038;-78
2022/10/08 14:03:57;;;;;;;10.15;1.65;;;;;;;;;;5117619;27;20039;-77
2022/10/08 14:06:23;;;;;;;10.48;1.55;;;;;;;;;;5118318;27;20382;-77
2022/10/08 14:08:49;;;;;;;6.95;1.10;;;;;;;;;;5110842;27;20046;-77
2022/10/08 14:11:16;;;;;;;7.80;1.50;;;;;;;;;;5127125;27;20518;-77
2022/10/08 14:13:42;;;;;;;7.78;1.20;;;;;;;;;;5101819;27;20043;-77
2022/10/08 14:16:11;;;;;;;13.60;1.42;;;;;;;;;;5118566;27;20100;-76
2022/10/08 14:18:37;;;;;;;9.80;1.52;;;;;;;;;;5102392;27;20062;-79
2022/10/08 14:21:04;;;;;;;7.13;1.45;;;;;;;;;;5096755;28;20470;-77
2022/10/08 14:23:31;;;;;;;7.78;1.02;;;;;;;;;;5111291;27;20491;-77
2022/10/08 14:25:57;;;;;;;9.98;1.85;;;;;;;;;;5115885;27;20066;-76
2022/10/08 14:28:23;;;;;;;7.38;1.48;;;;;;;;;;5117628;27;20042;-76
2022/10/08 14:30:49;;;;;;;7.65;1.30;;;;;;;;;;5095588;28;20078;-76
2022/10/08 14:33:16;;;;;;;8.05;1.30;;;;;;;;;;5106349;27;20400;-76
2022/10/08 14:35:42;;;;;;;8.15;1.27;;;;;;;;;;5107143;27;20031;-76
2022/10/08 14:38:08;;;;;;;5.80;1.17;;;;;;;;;;5116960;27;20491;-76
2022/10/08 14:40:34;;;;;;;7.22;1.25;;;;;;;;;;5117438;27;20085;-76
2022/10/08 14:43:00;;;;;;;6.60;1.70;;;;;;;;;;5117332;27;20039;-76
2022/10/08 14:45:26;;;;;;;7.97;1.20;;;;;;;;;;5116510;27;20488;-76
2022/10/08 14:47:52;;;;;;;11.63;1.40;;;;;;;;;;5114521;27;20047;-76
2022/10/08 14:50:19;;;;;;;6.68;1.40;;;;;;;;;;5096544;27;20480;-76
2022/10/08 14:52:45;;;;;;;9.32;1.20;;;;;;;;;;5114669;27;20400;-77